Dutch
Home     News     Corporate     Events & Tours     Flight ops     Crew centre      
My transavia virtual    Join us    Last logs    Who is flying    Software    Training    VRTS     
 

view flightdata
view flightplan
view OFP
view flightlog



flightdata:
pilot: Bernard B Mienville
flight: TRA7232
from: EDDF (Frankfurt/Main)
to: LFPO (Paris Paris Orly)
date: 24-09-2016
departure: 14:41z
arrival: 16:04z
duration: 1:22
aircraft: B738 (PHHSA)
distance: 353 NM
touchdown: -306 ft/m @ 136 KIAS



flightplan:
-(FPL-TRA7232-IS
-B738/M-SDEHPRWXY/EHLSB1
-EDDF1442
-N0400F320 ULKIG Y180 NISIV UY180 DIK UN857 RENSA
-LFPO0100 LFPG
-PBN/B1D1LO1 DOF/160924 REG/PHHSA SEL/JQDH CODE/4841A5 OPR/TRA RVR/200 RMK/TCAS)



operational flightplan (OFP):
NO LOADSHEET AVAILABLE

WEATHER BRIEFING - GENERATED 24 SEP 2016 14:27 UTC
--------------------------------------------------------------------------------

EDDF LFPO LFPG

--------------------------------------------------------------------------------
ORIGIN: EDDF (FRANKFURT/MAIN)
--------------------------------------------------------------------------------
EDDF 241350Z VRB03KT CAVOK 23/10 Q1024 NOSIG

EDDF 241100Z 2412/2518 16004KT CAVOK=  EHAM 241115Z 2412/2518 17012KT CAVOK
      BECMG 2415/2418 14007KT
      BECMG 2510/2513 20012KT SCT025
      BECMG 2514/2517 26012KT
      TEMPO 2515/2518 6000 -RA -SHRA SCT020TCU BKN030


--------------------------------------------------------------------------------
DESTINATION: LFPO (PARIS)
--------------------------------------------------------------------------------
LFPO 241400Z 15009KT 120V190 CAVOK 24/10 Q1020 NOSIG

LFPO 241100Z 2412/2518 16007KT CAVOK
      BECMG 2508/2510 22007KT SCT030 BKN060
      TEMPO 2510/2513 24012G22KT 3000 -RA BKN025
      BECMG 2514/2516 30005KT SCT025


--------------------------------------------------------------------------------
ALTERNATE: LFPG (PARIS)
--------------------------------------------------------------------------------
LFPG 241400Z 15013KT CAVOK 24/09 Q1020 NOSIG

LFPG 241100Z 2412/2518 16010KT CAVOK PROB30
      TEMPO 2511/2512 4000 RA BKN012 TX25/2415Z TN14/2505Z


NOTAM BRIEFING - GENERATED 24 SEP 2016 14:27 UTC
--------------------------------------------------------------------------------

EDDF LFPO LFPG

--------------------------------------------------------------------------------
GLOBAL TRANSAVIA.COM VIRTUAL NOTAMS
--------------------------------------------------------------------------------
REF:NIL PLEASE CONTACT OPERATIONS IN CASE OF STRUCTURAL FLIGHTPLAN ERRORS ON FLIGHT-OPS@TRANSAVIA-VIRTUAL.COM
VALID:UFN

REF:NIL
PLEASE CHECK ACARS EVERY 10 MINUTES WHEN FLYING WITH SOUND OFF. AN NEW ACARS MESSAGE PRODUCE A SOUND SIGNAL UNTILL ITS READ. FLOWCONTROL DON'T RECEIVE MUCH REACTION ON OUTGOING ACARS MESSAGES ACCORDING FLIGHTSTATUS.
SOURCE: SPL/HV/OCC/
END VALID: UFN

REF:NIL
PLEASE CONTACT FLOWCONTROL IN CASE OF PROBLEMS WITH ROUTINGS
SOURCE: SPL/HV/OCC/
END VALID: UFN

REF:NIL
IN CASE OF ENGINE-OUT FLY V2 OR V2 20 MAX. UNTIL ABOVE MSA.
LEVEL-OFF AT AN ALTITUDE ROUNDED OFF TO THE FIRST 1000 FT OF THE HIGHEST MSA.
E.G: MSA EHAM; 1.7 AND 2.3 LEVEL-OFF 3000 FT. AFTER LANDING MAKE A REP TO OCC ON 131.975
SOURCE:SPL/HV/OCC
END VALID:UFN



flightlog:
Pilot : Bernard B Mienville
Flight: TRA7232
From  : EDDF Frankfurt/Main
To    : LFPO Paris

[FLIGHTLOG] 1.5.0
24-09-2016 14:27:44z, logging started
24-09-2016 14:41:14z, parking brake released
24-09-2016 14:42:09z, flaps set to 13%
24-09-2016 14:42:10z, flaps set to 50%
24-09-2016 14:42:41z, pos report: 000 KIAS, 00 372 ft, heading 245, winds 068 @ 07 kts
24-09-2016 14:51:11z, take-off at 159 KIAS
24-09-2016 14:51:11z, pos report: 159 KIAS, 00 376 ft, heading 177, winds 071 @ 07 kts
24-09-2016 14:51:11z, flying online @ IVAO (TRA7232)
24-09-2016 14:51:11z, position: EDDF - Frankfurt/Main
24-09-2016 14:51:20z, retracted gear at 190 KIAS and 193 ft AGL
24-09-2016 14:51:22z, flaps set to 25%
24-09-2016 14:51:24z, flaps set to 0%
24-09-2016 14:57:42z, pos report: 251 KIAS, 16 447 ft, heading 284, winds 315 @ 06 kts
24-09-2016 15:12:43z, pos report: 274 KIAS, 32 250 ft, heading 249, winds 071 @ 13 kts
24-09-2016 15:24:57z, deployed spoilers
24-09-2016 15:25:25z, retracted spoilers
24-09-2016 15:25:32z, deployed spoilers
24-09-2016 15:26:27z, retracted spoilers
24-09-2016 15:27:44z, pos report: 240 KIAS, 09 440 ft, heading 256, winds 206 @ 10 kts
24-09-2016 15:42:45z, pos report: 240 KIAS, 06 418 ft, heading 246, winds 196 @ 18 kts
24-09-2016 15:49:53z, flaps set to 13%
24-09-2016 15:49:55z, flaps set to 38%
24-09-2016 15:50:18z, below glideslope
24-09-2016 15:53:22z, intercepted localizer
24-09-2016 15:53:27z, on glideslope
24-09-2016 15:53:40z, flaps set to 50%
24-09-2016 15:53:45z, flaps set to 62%
24-09-2016 15:53:47z, lowered gear at 197 KIAS and 3606 ft AGL
24-09-2016 15:54:12z, flaps set to 75%
24-09-2016 15:55:26z, flaps set to 87%
24-09-2016 15:57:46z, pos report: 148 KIAS, 00 467 ft, heading 065, winds 160 @ 09 kts
24-09-2016 15:58:03z, touchdown: -306ft/m at 136 KIAS
24-09-2016 15:58:03z, pos report: 136 KIAS, 00 300 ft, heading 063, winds 158 @ 08 kts
24-09-2016 15:58:03z, flying online @ IVAO (TRA7232)
24-09-2016 15:58:03z, position: LFPO - Paris
24-09-2016 15:58:07z, deployed spoilers
24-09-2016 15:58:19z, retracted spoilers
24-09-2016 16:00:08z, flaps set to 13%
24-09-2016 16:00:13z, flaps set to 0%
24-09-2016 16:04:14z, parking brake set
24-09-2016 16:05:17z, logging ended

©2009-2020, transavia virtual. All rights reserved. This website is only meant for simulation purposes.
This website is not owned by transavia, nor is transavia responsible for the content of this website.